This is the latest recevied weather packets stored in our database for station/object SP4LIN-15. If no packets are shown the sender has not sent any weather packets the latest 1 day(s).
| Time | Temp. | Humidity | Pressure | Rain* | Wind** | Luminosity | Snow |
|---|---|---|---|---|---|---|---|
| 1777968544 | 18.89° C | 53% | 1003.2 hPa | 0 mm | 0 m/s | - | - |
| 1777967644 | 20.56° C | 50% | 1003.3 hPa | 0 mm | 0 m/s | - | - |
| 1777966744 | 22.78° C | 46% | 1003.3 hPa | 0 mm | 0 m/s | - | - |
| 1777965844 | 25.56° C | 43% | 1003.4 hPa | 0 mm | 0 m/s | - | - |
| 1777964944 | 22.78° C | 48% | 1003.5 hPa | 0 mm | 0 m/s | - | - |
| 1777964044 | 20.56° C | 50% | 1003.5 hPa | 0 mm | 0 m/s | - | - |
| 1777963144 | 25.56° C | 43% | 1003.5 hPa | 0 mm | 0 m/s | - | - |
| 1777962244 | 24.44° C | 47% | 1003.5 hPa | 0 mm | 0 m/s | - | - |
| 1777961344 | 22.22° C | 53% | 1003.6 hPa | 0 mm | 0 m/s | - | - |
| 1777960444 | 18.33° C | 62% | 1003.8 hPa | 0 mm | 0 m/s | - | - |
| 1777959544 | 16.67° C | 69% | 1003.8 hPa | 0 mm | 0 m/s | - | - |
| 1777958644 | 14.44° C | 77% | 1004.1 hPa | 0 mm | 0 m/s | - | - |
| 1777957744 | 13.33° C | 83% | 1003.9 hPa | 0 mm | 0 m/s | - | - |
| 1777956844 | 13.33° C | 86% | 1004 hPa | 0 mm | 0 m/s | - | - |
| 1777955945 | 13.33° C | 88% | 1004 hPa | 0 mm | 0 m/s | - | - |
| 1777955045 | 10° C | 89% | 1004 hPa | 0 mm | 0 m/s | - | - |
| 1777954145 | 9.44° C | 89% | 1003.8 hPa | 0 mm | 0 m/s | - | - |
| 1777953245 | 8.89° C | 88% | 1003.9 hPa | 0 mm | 0 m/s | - | - |
| 1777952345 | 7.78° C | 88% | 1004 hPa | 0 mm | 0 m/s | - | - |
| 1777951445 | 7.78° C | 88% | 1003.9 hPa | 0 mm | 0 m/s | - | - |
| 1777950545 | 7.22° C | 88% | 1003.9 hPa | 0 mm | 0 m/s | - | - |
| 1777949645 | 7.78° C | 88% | 1004 hPa | 0 mm | 0 m/s | - | - |
| 1777948745 | 7.78° C | 88% | 1004.1 hPa | 0 mm | 0 m/s | - | - |
| 1777947845 | 7.78° C | 88% | 1004 hPa | 0 mm | 0 m/s | - | - |
| 1777946945 | 7.78° C | 87% | 1004.1 hPa | 0 mm | 0 m/s | - | - |
* Rain latest hour (hover to see other rain measurements)
** Current wind speed in m/s (hover to see current wind gust speed)